Terminal Aerodrome Forecast
Issued by NWS

Home | Current Version | Previous Version | Text Only | Print | Product List | Glossary On
Versions: 1 2 3 4 5 6 7 8 9 10 11 12 13 14 15 16 17 18 19 20 21
045
FTUS46 KMTR 070540
TAFSTS
TAF
KSTS 070540Z 0706/0806 VRB03KT P6SM SCT200
     FM070900 VRB03KT 1SM BR SCT001
     FM071100 00000KT 1/4SM FG VV001
     FM071600 32003KT 2SM BR SCT002
     FM071700 34003KT 6SM BR SKC
     FM072000 04004KT P6SM SKC=

USA.gov is the U.S. government's official web portal to all federal, state and local government web resources and services.